createdAt,value
2023-04-03T00:05:43.572Z,68.96
2023-04-03T00:16:11.561Z,69.23
2023-04-03T00:26:37.210Z,68.90
2023-04-03T00:37:03.265Z,68.72
2023-04-03T00:47:30.051Z,69.01
2023-04-03T00:57:57.455Z,68.61
2023-04-03T01:08:23.055Z,68.68
2023-04-03T01:18:49.873Z,68.52
2023-04-03T01:29:15.499Z,68.73
2023-04-03T01:39:41.082Z,68.74
2023-04-03T01:50:08.021Z,68.22
2023-04-03T02:00:33.815Z,68.17
2023-04-03T02:11:00.278Z,68.08
2023-04-03T02:21:26.133Z,68.07
2023-04-03T02:31:52.238Z,67.15
2023-04-03T02:42:18.204Z,67.19
2023-04-03T02:52:43.726Z,66.76
2023-04-03T03:03:10.109Z,67.06
2023-04-03T03:13:36.385Z,67.54
2023-04-03T03:24:02.103Z,67.82
2023-04-03T03:34:28.090Z,67.48
2023-04-03T03:45:02.554Z,66.91
2023-04-03T03:55:29.160Z,66.51
2023-04-03T04:05:55.956Z,66.12
2023-04-03T04:16:22.114Z,66.04
2023-04-03T04:26:48.053Z,66.33
2023-04-03T04:37:14.433Z,65.66
2023-04-03T04:47:40.548Z,65.74
2023-04-03T04:58:06.481Z,65.39
2023-04-03T05:08:32.132Z,65.42
2023-04-03T05:18:58.092Z,65.40
2023-04-03T05:29:24.274Z,64.97
2023-04-03T05:39:50.881Z,64.94
2023-04-03T05:50:16.974Z,65.01
2023-04-03T06:00:43.859Z,64.83
2023-04-03T06:11:10.227Z,64.80
2023-04-03T06:21:36.835Z,64.79
2023-04-03T06:32:03.001Z,64.50
2023-04-03T06:42:28.901Z,64.51
2023-04-03T06:52:54.688Z,64.93
2023-04-03T07:03:20.409Z,64.77
2023-04-03T07:13:46.182Z,64.25
2023-04-03T07:24:15.933Z,63.48
2023-04-03T07:34:42.898Z,63.66
2023-04-03T07:45:09.724Z,63.05
2023-04-03T07:55:38.604Z,63.07
2023-04-03T08:06:11.960Z,62.80
2023-04-03T08:16:41.145Z,61.88
2023-04-03T08:27:07.310Z,60.39
2023-04-03T08:37:33.275Z,58.83
2023-04-03T08:48:06.909Z,57.40
2023-04-03T08:58:39.524Z,55.11
2023-04-03T09:09:16.885Z,54.34
2023-04-03T09:19:50.221Z,52.94
2023-04-03T09:30:19.518Z,50.18
2023-04-03T09:40:47.535Z,49.58
2023-04-03T09:51:19.522Z,48.61
2023-04-03T10:01:58.674Z,48.91
2023-04-03T10:12:24.587Z,48.33
2023-04-03T10:22:58.366Z,47.50
2023-04-03T10:33:47.520Z,47.27
2023-04-03T10:44:16.895Z,49.29
2023-04-03T10:54:42.369Z,47.75
2023-04-03T11:05:18.406Z,46.92
2023-04-03T11:15:45.695Z,47.93
2023-04-03T11:26:17.033Z,49.02
2023-04-03T11:36:48.390Z,49.63
2023-04-03T11:47:34.657Z,49.42
2023-04-03T11:58:18.557Z,45.94
2023-04-03T12:08:52.884Z,45.74
2023-04-03T12:19:42.481Z,45.24
2023-04-03T12:30:21.253Z,45.41
2023-04-03T12:40:54.389Z,44.03
2023-04-03T12:51:24.074Z,44.59
2023-04-03T13:02:00.566Z,44.10
2023-04-03T13:12:26.541Z,45.64
2023-04-03T13:22:57.577Z,44.70
2023-04-03T13:33:28.606Z,43.87
2023-04-03T13:44:03.333Z,44.26
2023-04-03T13:54:36.906Z,43.88
2023-04-03T14:05:05.199Z,43.63
2023-04-03T14:15:33.080Z,43.49
2023-04-03T14:26:00.023Z,42.17
2023-04-03T14:36:29.059Z,42.46
2023-04-03T14:46:57.159Z,43.57
2023-04-03T14:57:26.537Z,44.07
2023-04-03T15:07:55.590Z,43.48
2023-04-03T15:18:24.821Z,43.82
2023-04-03T15:28:51.076Z,43.12
2023-04-03T15:39:17.558Z,43.60
2023-04-03T15:49:43.552Z,43.66
2023-04-03T16:00:13.373Z,43.56
2023-04-03T16:10:41.186Z,43.57
2023-04-03T16:21:09.146Z,43.28
2023-04-03T16:31:36.081Z,43.72
2023-04-03T16:42:01.993Z,44.51
2023-04-03T16:52:28.055Z,44.64
2023-04-03T17:02:53.993Z,44.30
2023-04-03T17:13:20.037Z,43.95
2023-04-03T17:23:49.335Z,44.66
2023-04-03T17:34:15.202Z,44.98
2023-04-03T17:44:41.398Z,45.13
2023-04-03T17:55:08.953Z,45.34
2023-04-03T18:05:35.189Z,45.42
2023-04-03T18:16:00.865Z,45.96
2023-04-03T18:26:29.249Z,46.56
2023-04-03T18:36:55.458Z,46.77
2023-04-03T18:47:22.258Z,47.11
2023-04-03T18:57:48.661Z,47.31
2023-04-03T19:08:15.601Z,48.08
2023-04-03T19:18:41.349Z,48.19
2023-04-03T19:29:07.725Z,48.02
2023-04-03T19:39:35.406Z,47.78
2023-04-03T19:50:01.333Z,47.96
2023-04-03T20:00:27.626Z,48.41
2023-04-03T20:10:53.538Z,48.69
2023-04-03T20:21:20.125Z,48.65
2023-04-03T20:31:46.950Z,48.77
2023-04-03T20:42:13.518Z,48.81
2023-04-03T20:52:38.958Z,49.30
2023-04-03T21:03:06.213Z,49.76
2023-04-03T21:14:07.057Z,49.69
2023-04-03T21:24:33.028Z,50.04
2023-04-03T21:34:58.645Z,50.20
2023-04-03T21:45:24.909Z,50.06
2023-04-03T21:55:57.620Z,50.25
2023-04-03T22:06:23.445Z,50.51
2023-04-03T22:16:49.357Z,50.93
2023-04-03T22:27:15.781Z,51.21
2023-04-03T22:37:41.858Z,51.63
2023-04-03T22:48:08.358Z,52.02
2023-04-03T22:58:34.339Z,52.47
2023-04-03T23:09:00.250Z,52.52
2023-04-03T23:19:26.281Z,53.45
2023-04-03T23:29:52.184Z,53.61
2023-04-03T23:40:19.260Z,53.97
2023-04-03T23:50:45.925Z,54.49
